Time,TemperatureF,DewpointF,PressureIn,WindDirection,WindDirectionDegrees,WindSpeedMPH,WindSpeedGustMPH,Humidity,HourlyPrecipIn,Conditions,Clouds,dailyrainin,SoftwareType,DateUTC
2013-04-04 00:00:00,66.9,64.5,30.07,East,87,0.0,0.0,92,0.00,-RA,,0.12,WeatherDisplay:10.37,2013-04-04 04:00:00,
2013-04-04 00:05:00,66.9,65.7,30.06,SE,132,4.6,4.6,96,0.00,-RA,,0.00,WeatherDisplay:10.37,2013-04-04 04:05:00,
2013-04-04 00:10:00,66.7,65.6,30.06,ESE,102,3.0,6.0,96,0.00,-RA,,0.00,WeatherDisplay:10.37,2013-04-04 04:10:00,
2013-04-04 00:15:00,66.7,65.6,30.06,ESE,112,3.0,6.0,96,0.00,-RA,,0.00,WeatherDisplay:10.37,2013-04-04 04:15:00,
2013-04-04 00:20:00,66.7,65.6,30.06,East,101,0.0,4.0,96,0.00,-RA,,0.00,WeatherDisplay:10.37,2013-04-04 04:20:00,
2013-04-04 00:25:00,66.7,65.5,30.06,East,97,0.0,5.0,96,0.00,-RA,,0.00,WeatherDisplay:10.37,2013-04-04 04:25:00,
2013-04-04 00:30:00,66.6,65.4,30.06,East,101,4.6,0.0,96,0.00,-RA,,0.00,WeatherDisplay:10.37,2013-04-04 04:30:00,
2013-04-04 00:35:00,66.7,65.6,30.06,SE,127,3.6,0.0,96,0.00,-RA,,0.00,WeatherDisplay:10.37,2013-04-04 04:35:00,
2013-04-04 00:40:00,66.7,65.6,30.06,East,93,5.8,5.8,96,0.00,-RA,,0.00,WeatherDisplay:10.37,2013-04-04 04:40:00,
2013-04-04 00:45:00,66.7,65.6,30.06,ESE,107,3.0,6.0,96,0.00,-RA,,0.00,WeatherDisplay:10.37,2013-04-04 04:45:00,
2013-04-04 00:50:00,66.7,65.6,30.06,ESE,107,3.0,8.0,96,0.00,-RA,,0.00,WeatherDisplay:10.37,2013-04-04 04:50:00,
2013-04-04 00:55:00,66.7,65.6,30.06,ESE,115,3.0,8.0,96,0.00,-RA,,0.00,WeatherDisplay:10.37,2013-04-04 04:55:00,
2013-04-04 01:00:00,66.9,65.7,30.06,SE,126,8.1,8.1,96,0.00,-RA,,0.00,WeatherDisplay:10.37,2013-04-04 05:00:00,
2013-04-04 01:05:00,66.9,65.7,30.03,ESE,123,3.5,3.6,96,0.00,BKN,,0.00,WeatherDisplay:10.37,2013-04-04 05:05:00,
2013-04-04 01:10:00,66.9,65.7,30.03,ESE,112,2.0,6.0,96,0.00,BKN,,0.00,WeatherDisplay:10.37,2013-04-04 05:10:00,
2013-04-04 01:15:00,66.9,65.7,30.03,ESE,112,3.0,6.0,96,0.00,BKN,,0.00,WeatherDisplay:10.37,2013-04-04 05:15:00,
2013-04-04 01:20:00,66.9,65.7,30.03,ESE,108,5.8,5.8,96,0.00,BKN,,0.00,WeatherDisplay:10.37,2013-04-04 05:20:00,
2013-04-04 01:25:00,66.9,65.7,30.03,ESE,107,3.0,6.0,96,0.00,BKN,,0.00,WeatherDisplay:10.37,2013-04-04 05:25:00,
2013-04-04 01:30:00,67.1,65.9,30.03,NNE,17,4.6,4.6,96,0.00,BKN,,0.00,WeatherDisplay:10.37,2013-04-04 05:30:00,
2013-04-04 01:35:00,67.1,65.9,30.03,NE,40,2.0,6.0,96,0.00,BKN,,0.00,WeatherDisplay:10.37,2013-04-04 05:35:00,
2013-04-04 01:40:00,67.3,66.1,30.03,NE,36,3.0,6.0,96,0.00,BKN,,0.00,WeatherDisplay:10.37,2013-04-04 05:40:00,
2013-04-04 01:45:00,67.3,66.1,30.03,NE,44,3.5,3.5,96,0.00,BKN,,0.00,WeatherDisplay:10.37,2013-04-04 05:45:00,
2013-04-04 01:50:00,67.3,66.1,30.03,ENE,69,5.8,5.8,96,0.00,BKN,,0.00,WeatherDisplay:10.37,2013-04-04 05:50:00,
2013-04-04 01:55:00,67.1,65.9,30.03,NE,50,3.5,3.5,96,0.00,BKN,,0.00,WeatherDisplay:10.37,2013-04-04 05:55:00,
2013-04-04 02:00:00,67.1,65.9,30.03,ENE,58,5.8,5.8,96,0.00,BKN,,0.00,WeatherDisplay:10.37,2013-04-04 06:00:00,
2013-04-04 02:05:00,67.1,64.7,30.02,ENE,65,5.8,5.8,92,0.00,OVC,,0.00,WeatherDisplay:10.37,2013-04-04 06:05:00,
2013-04-04 02:10:00,67.1,64.7,30.02,ESE,116,5.8,5.8,92,0.00,OVC,,0.00,WeatherDisplay:10.37,2013-04-04 06:10:00,
2013-04-04 02:15:00,67.1,64.7,30.02,East,81,0.0,0.0,92,0.00,OVC,,0.00,WeatherDisplay:10.37,2013-04-04 06:15:00,
2013-04-04 02:20:00,67.1,64.7,30.02,East,81,0.0,0.0,92,0.00,OVC,,0.00,WeatherDisplay:10.37,2013-04-04 06:20:00,
2013-04-04 02:25:00,67.1,64.7,30.02,WSW,251,0.0,0.0,92,0.00,OVC,,0.00,WeatherDisplay:10.37,2013-04-04 06:25:00,
2013-04-04 02:30:00,67.1,64.7,30.02,NE,39,3.5,0.0,92,0.00,OVC,,0.00,WeatherDisplay:10.37,2013-04-04 06:30:00,
2013-04-04 02:35:00,67.3,64.9,30.02,SSE,168,5.8,5.8,92,0.00,OVC,,0.00,WeatherDisplay:10.37,2013-04-04 06:35:00,
2013-04-04 02:40:00,67.3,64.9,30.02,SE,141,2.3,0.0,92,0.00,OVC,,0.00,WeatherDisplay:10.37,2013-04-04 06:40:00,
2013-04-04 02:45:00,67.6,65.2,30.02,ESE,112,8.1,8.1,92,0.00,OVC,,0.00,WeatherDisplay:10.37,2013-04-04 06:45:00,
2013-04-04 02:50:00,67.8,65.4,30.02,SSE,155,4.6,0.0,92,0.00,OVC,,0.00,WeatherDisplay:10.37,2013-04-04 06:50:00,
2013-04-04 02:55:00,67.8,65.4,30.02,SE,132,3.5,3.5,92,0.00,OVC,,0.00,WeatherDisplay:10.37,2013-04-04 06:55:00,
2013-04-04 03:00:00,67.8,65.4,30.02,ESE,117,3.5,0.0,92,0.00,OVC,,0.00,WeatherDisplay:10.37,2013-04-04 07:00:00,
2013-04-04 03:05:00,67.8,66.6,30.00,SE,135,3.5,0.0,96,0.00,OVC,,0.00,WeatherDisplay:10.37,2013-04-04 07:05:00,
2013-04-04 03:10:00,67.8,66.6,30.00,East,94,5.8,5.8,96,0.00,OVC,,0.00,WeatherDisplay:10.37,2013-04-04 07:10:00,
2013-04-04 03:15:00,67.8,66.6,30.00,SE,128,0.0,0.0,96,0.00,OVC,,0.00,WeatherDisplay:10.37,2013-04-04 07:15:00,
2013-04-04 03:20:00,67.8,66.6,30.00,SE,132,0.0,0.0,96,0.00,OVC,,0.00,WeatherDisplay:10.37,2013-04-04 07:20:00,
2013-04-04 03:26:00,67.8,66.6,30.00,SE,126,2.2,0.0,96,0.00,OVC,,0.00,WeatherDisplay:10.37,2013-04-04 07:26:00,
2013-04-04 03:31:00,67.8,66.6,30.00,ESE,118,2.3,0.0,96,0.00,OVC,,0.00,WeatherDisplay:10.37,2013-04-04 07:31:00,
2013-04-04 03:36:00,67.8,66.6,30.00,ESE,120,0.0,0.0,96,0.00,OVC,,0.00,WeatherDisplay:10.37,2013-04-04 07:36:00,
2013-04-04 03:41:00,67.8,66.6,30.00,ESE,120,0.0,0.0,96,0.00,OVC,,0.00,WeatherDisplay:10.37,2013-04-04 07:41:00,
2013-04-04 03:46:00,67.8,66.6,30.00,ESE,121,0.0,0.0,96,0.00,OVC,,0.00,WeatherDisplay:10.37,2013-04-04 07:46:00,
2013-04-04 03:51:00,67.8,66.6,30.00,SE,136,0.0,0.0,96,0.00,OVC,,0.00,WeatherDisplay:10.37,2013-04-04 07:51:00,
2013-04-04 03:56:00,67.8,66.6,30.00,SE,140,0.0,0.0,96,0.00,OVC,,0.00,WeatherDisplay:10.37,2013-04-04 07:56:00,
2013-04-04 04:01:00,67.8,66.6,30.00,SE,140,2.3,0.0,96,0.00,OVC,,0.00,WeatherDisplay:10.37,2013-04-04 08:01:00,
2013-04-04 04:06:00,67.8,66.6,29.99,SE,140,2.3,0.0,96,0.00,OVC,,0.00,WeatherDisplay:10.37,2013-04-04 08:06:00,
2013-04-04 04:11:00,67.8,66.6,29.99,SE,142,3.5,0.0,96,0.00,OVC,,0.00,WeatherDisplay:10.37,2013-04-04 08:11:00,
2013-04-04 04:16:00,68.0,66.8,29.99,SE,142,0.0,0.0,96,0.00,OVC,,0.00,WeatherDisplay:10.37,2013-04-04 08:16:00,
2013-04-04 04:21:00,68.0,66.8,29.99,SE,142,0.0,0.0,96,0.00,OVC,,0.00,WeatherDisplay:10.37,2013-04-04 08:21:00,
2013-04-04 04:26:00,68.2,67.0,29.99,SE,142,0.0,0.0,96,0.00,OVC,,0.00,WeatherDisplay:10.37,2013-04-04 08:26:00,
2013-04-04 04:31:00,68.2,67.0,29.99,SE,144,3.5,0.0,96,0.00,OVC,,0.00,WeatherDisplay:10.37,2013-04-04 08:31:00,
2013-04-04 04:36:00,68.2,67.0,29.99,NE,46,3.5,0.0,96,0.00,OVC,,0.00,WeatherDisplay:10.37,2013-04-04 08:36:00,
2013-04-04 04:42:00,68.2,67.0,29.99,NE,46,2.3,2.3,96,0.00,OVC,,0.00,WeatherDisplay:10.37,2013-04-04 08:42:00,
2013-04-04 04:47:00,68.2,67.0,29.99,NE,46,0.0,0.0,96,0.00,OVC,,0.00,WeatherDisplay:10.37,2013-04-04 08:47:00,
2013-04-04 04:52:00,68.4,67.2,29.99,NE,46,0.0,0.0,96,0.00,OVC,,0.00,WeatherDisplay:10.37,2013-04-04 08:52:00,
2013-04-04 04:57:00,68.4,67.2,29.99,SE,133,0.0,0.0,96,0.00,OVC,,0.00,WeatherDisplay:10.37,2013-04-04 08:57:00,
2013-04-04 05:03:00,68.4,67.2,29.95,SE,124,3.5,3.5,96,0.00,BKN,,0.00,WeatherDisplay:10.37,2013-04-04 09:03:00,
2013-04-04 05:08:00,68.4,67.2,29.95,North,5,3.5,0.0,96,0.00,BKN,,0.00,WeatherDisplay:10.37,2013-04-04 09:08:00,
2013-04-04 05:13:00,68.5,67.4,29.95,North,10,3.6,3.6,96,0.00,BKN,,0.00,WeatherDisplay:10.37,2013-04-04 09:13:00,
2013-04-04 05:18:00,68.5,67.4,29.95,NNE,20,3.5,3.5,96,0.00,BKN,,0.00,WeatherDisplay:10.37,2013-04-04 09:18:00,
2013-04-04 05:23:00,68.7,67.5,29.95,NNE,19,3.5,3.5,96,0.00,BKN,,0.00,WeatherDisplay:10.37,2013-04-04 09:23:00,
2013-04-04 05:28:00,68.9,67.7,29.95,NNE,14,3.6,0.0,96,0.00,BKN,,0.00,WeatherDisplay:10.37,2013-04-04 09:28:00,
2013-04-04 05:33:00,69.1,67.9,29.95,SSW,210,4.6,4.6,96,0.00,BKN,,0.00,WeatherDisplay:10.37,2013-04-04 09:33:00,
2013-04-04 05:38:00,69.1,67.9,29.95,SSW,195,5.8,5.8,96,0.00,BKN,,0.00,WeatherDisplay:10.37,2013-04-04 09:38:00,
2013-04-04 05:43:00,69.3,68.1,29.95,South,183,3.5,0.0,96,0.00,BKN,,0.00,WeatherDisplay:10.37,2013-04-04 09:43:00,
2013-04-04 05:48:00,69.3,68.1,29.95,SSE,151,2.3,2.7,96,0.00,BKN,,0.00,WeatherDisplay:10.37,2013-04-04 09:48:00,
2013-04-04 05:53:00,69.3,68.1,29.95,SSE,165,5.8,5.8,96,0.00,BKN,,0.00,WeatherDisplay:10.37,2013-04-04 09:53:00,
2013-04-04 05:58:00,69.4,68.2,29.95,SSW,206,5.8,5.8,96,0.00,BKN,,0.00,WeatherDisplay:10.37,2013-04-04 09:58:00,
2013-04-04 06:03:00,69.4,67.3,29.99,South,169,5.8,5.8,93,0.00,OVC,,0.00,WeatherDisplay:10.37,2013-04-04 10:03:00,
2013-04-04 06:08:00,69.4,67.3,29.99,South,171,4.6,4.6,93,0.00,OVC,,0.00,WeatherDisplay:10.37,2013-04-04 10:08:00,
2013-04-04 06:13:00,69.4,67.3,29.99,South,176,3.5,0.0,93,0.00,OVC,,0.00,WeatherDisplay:10.37,2013-04-04 10:13:00,
2013-04-04 06:18:00,69.4,67.3,29.99,SSW,210,3.5,3.5,93,0.00,OVC,,0.00,WeatherDisplay:10.37,2013-04-04 10:18:00,
2013-04-04 06:23:00,69.4,67.3,29.99,SSE,165,5.8,5.8,93,0.00,OVC,,0.00,WeatherDisplay:10.37,2013-04-04 10:23:00,
2013-04-04 06:28:00,69.4,67.3,29.99,SSE,166,5.8,5.8,93,0.00,OVC,,0.00,WeatherDisplay:10.37,2013-04-04 10:28:00,
2013-04-04 06:33:00,69.4,67.3,29.99,South,173,5.8,5.8,93,0.00,OVC,,0.00,WeatherDisplay:10.37,2013-04-04 10:33:00,
2013-04-04 06:38:00,69.4,67.3,29.99,South,173,4.6,4.6,93,0.00,OVC,,0.00,WeatherDisplay:10.37,2013-04-04 10:38:00,
2013-04-04 06:43:00,69.4,67.3,29.99,SSE,151,5.4,5.4,93,0.00,OVC,,0.00,WeatherDisplay:10.37,2013-04-04 10:43:00,
2013-04-04 06:48:00,69.3,67.1,29.99,South,181,6.9,6.9,93,0.00,OVC,,0.00,WeatherDisplay:10.37,2013-04-04 10:48:00,
2013-04-04 06:53:00,69.3,67.1,29.99,South,179,4.6,0.0,93,0.00,OVC,,0.00,WeatherDisplay:10.37,2013-04-04 10:53:00,
2013-04-04 06:59:00,69.3,67.1,29.99,SW,227,2.3,0.0,93,0.00,OVC,,0.00,WeatherDisplay:10.37,2013-04-04 10:59:00,
2013-04-04 07:04:00,69.3,66.2,29.97,SSE,158,5.8,5.8,90,0.00,BKN,,0.00,WeatherDisplay:10.37,2013-04-04 11:04:00,
2013-04-04 07:09:00,69.3,66.2,29.97,South,188,5.8,5.8,90,0.00,BKN,,0.00,WeatherDisplay:10.37,2013-04-04 11:09:00,
2013-04-04 07:14:00,69.4,66.4,29.97,SSE,155,4.0,4.5,90,0.00,BKN,,0.00,WeatherDisplay:10.37,2013-04-04 11:14:00,
2013-04-04 07:20:00,69.4,66.4,29.97,SSE,156,5.8,5.8,90,0.00,BKN,,0.00,WeatherDisplay:10.37,2013-04-04 11:20:00,
2013-04-04 07:25:00,69.4,66.4,29.97,SSE,165,7.0,10.0,90,0.00,BKN,,0.00,WeatherDisplay:10.37,2013-04-04 11:25:00,
2013-04-04 07:30:00,69.4,66.4,29.97,SSE,158,7.0,12.0,90,0.00,BKN,,0.00,WeatherDisplay:10.37,2013-04-04 11:30:00,
2013-04-04 07:35:00,69.4,66.4,29.97,SSE,157,3.0,8.0,90,0.00,BKN,,0.00,WeatherDisplay:10.37,2013-04-04 11:35:00,
2013-04-04 07:39:00,69.4,66.4,29.97,SSE,166,11.5,11.5,90,0.00,BKN,,0.00,WeatherDisplay:10.37,2013-04-04 11:39:00,
2013-04-04 07:45:00,69.4,66.4,29.97,SSE,154,8.1,8.1,90,0.00,BKN,,0.00,WeatherDisplay:10.37,2013-04-04 11:45:00,
2013-04-04 07:50:00,69.4,66.4,29.97,SSE,166,1.0,8.0,90,0.00,BKN,,0.00,WeatherDisplay:10.37,2013-04-04 11:50:00,
2013-04-04 07:55:00,69.6,66.6,29.97,South,171,0.0,3.0,90,0.00,BKN,,0.00,WeatherDisplay:10.37,2013-04-04 11:55:00,
2013-04-04 08:00:00,69.6,66.6,29.97,SE,124,0.0,0.0,90,0.00,BKN,,0.00,WeatherDisplay:10.37,2013-04-04 12:00:00,
2013-04-04 08:05:00,69.6,66.6,29.95,SE,124,0.0,0.0,90,0.00,OVC,,0.00,WeatherDisplay:10.37,2013-04-04 12:05:00,
2013-04-04 08:10:00,69.8,66.7,29.95,SE,124,0.0,0.0,90,0.00,OVC,,0.00,WeatherDisplay:10.37,2013-04-04 12:10:00,
2013-04-04 08:15:00,70.0,66.9,29.95,SE,124,0.0,0.0,90,0.00,OVC,,0.00,WeatherDisplay:10.37,2013-04-04 12:15:00,
2013-04-04 08:20:00,70.0,66.9,29.95,SE,124,0.0,0.0,90,0.00,OVC,,0.00,WeatherDisplay:10.37,2013-04-04 12:20:00,
2013-04-04 08:25:00,70.3,67.3,29.95,NNE,30,0.0,0.0,90,0.00,OVC,,0.00,WeatherDisplay:10.37,2013-04-04 12:25:00,
2013-04-04 08:30:00,70.7,67.6,29.95,NNE,30,0.0,0.0,90,0.00,OVC,,0.00,WeatherDisplay:10.37,2013-04-04 12:30:00,
2013-04-04 08:35:00,70.9,67.8,29.95,NNE,33,3.6,3.6,90,0.00,OVC,,0.00,WeatherDisplay:10.37,2013-04-04 12:35:00,
2013-04-04 08:40:00,70.9,67.8,29.95,ENE,61,2.3,0.0,90,0.00,OVC,,0.00,WeatherDisplay:10.37,2013-04-04 12:40:00,
2013-04-04 08:45:00,71.1,68.0,29.95,ENE,61,2.7,0.0,90,0.00,OVC,,0.00,WeatherDisplay:10.37,2013-04-04 12:45:00,
2013-04-04 08:50:00,71.4,68.3,29.95,ENE,61,0.0,0.0,90,0.00,OVC,,0.00,WeatherDisplay:10.37,2013-04-04 12:50:00,
2013-04-04 08:55:00,71.6,68.5,29.95,NNE,25,3.5,3.5,90,0.00,OVC,,0.00,WeatherDisplay:10.37,2013-04-04 12:55:00,
2013-04-04 09:00:00,71.8,68.7,29.95,NNE,25,0.0,0.0,90,0.00,OVC,,0.00,WeatherDisplay:10.37,2013-04-04 13:00:00,
2013-04-04 09:05:00,72.0,66.9,29.97,NNE,25,0.0,0.0,84,0.00,BKN,,0.00,WeatherDisplay:10.37,2013-04-04 13:05:00,
2013-04-04 09:10:00,72.1,67.0,29.97,NNE,25,0.0,0.0,84,0.00,BKN,,0.00,WeatherDisplay:10.37,2013-04-04 13:10:00,
2013-04-04 09:15:00,72.1,67.0,29.97,NNE,25,0.0,0.0,84,0.00,BKN,,0.00,WeatherDisplay:10.37,2013-04-04 13:15:00,
2013-04-04 09:20:00,72.5,67.4,29.97,NNE,25,0.0,0.0,84,0.00,BKN,,0.00,WeatherDisplay:10.37,2013-04-04 13:20:00,
2013-04-04 09:25:00,72.9,67.7,29.97,NNE,25,0.0,0.0,84,0.00,BKN,,0.00,WeatherDisplay:10.37,2013-04-04 13:25:00,
2013-04-04 09:30:00,73.4,68.3,29.97,NNE,25,0.0,0.0,84,0.00,BKN,,0.00,WeatherDisplay:10.37,2013-04-04 13:30:00,
2013-04-04 09:35:00,74.1,69.0,29.97,SSW,196,3.5,3.5,84,0.00,BKN,,0.00,WeatherDisplay:10.37,2013-04-04 13:35:00,
2013-04-04 09:40:00,74.3,69.1,29.97,SW,223,5.8,5.8,84,0.00,BKN,,0.00,WeatherDisplay:10.37,2013-04-04 13:40:00,
2013-04-04 09:45:00,73.8,68.6,29.97,West,270,5.8,5.8,84,0.00,BKN,,0.00,WeatherDisplay:10.37,2013-04-04 13:45:00,
2013-04-04 09:50:00,73.4,68.3,29.97,WNW,283,3.5,3.5,84,0.00,BKN,,0.00,WeatherDisplay:10.37,2013-04-04 13:50:00,
2013-04-04 09:55:00,73.4,68.3,29.97,SW,228,5.8,5.8,84,0.00,BKN,,0.00,WeatherDisplay:10.37,2013-04-04 13:55:00,
2013-04-04 10:00:00,73.6,68.4,29.97,West,277,4.0,0.0,84,0.00,BKN,,0.00,WeatherDisplay:10.37,2013-04-04 14:00:00,
2013-04-04 10:05:00,74.3,68.1,29.99,SSW,194,8.1,8.1,81,0.00,BKN,,0.00,WeatherDisplay:10.37,2013-04-04 14:05:00,
2013-04-04 10:10:00,75.2,69.0,29.99,West,262,3.5,4.0,81,0.00,BKN,,0.00,WeatherDisplay:10.37,2013-04-04 14:10:00,
2013-04-04 10:15:00,75.7,69.5,29.99,SW,225,5.8,5.8,81,0.00,BKN,,0.00,WeatherDisplay:10.37,2013-04-04 14:15:00,
2013-04-04 10:20:00,75.6,69.3,29.99,West,273,10.4,10.4,81,0.00,BKN,,0.00,WeatherDisplay:10.37,2013-04-04 14:20:00,
2013-04-04 10:25:00,75.0,68.8,29.99,WSW,238,3.5,3.5,81,0.00,BKN,,0.00,WeatherDisplay:10.37,2013-04-04 14:25:00,
2013-04-04 10:31:00,74.7,68.4,29.99,WSW,243,4.0,4.0,81,0.00,BKN,,0.00,WeatherDisplay:10.37,2013-04-04 14:31:00,
2013-04-04 10:36:00,74.5,68.3,29.99,WSW,251,6.9,6.9,81,0.00,BKN,,0.00,WeatherDisplay:10.37,2013-04-04 14:36:00,
2013-04-04 10:41:00,74.1,67.9,29.99,SSW,204,6.9,6.9,81,0.00,BKN,,0.00,WeatherDisplay:10.37,2013-04-04 14:41:00,
2013-04-04 10:46:00,74.1,67.9,29.99,SW,229,3.5,3.5,81,0.00,BKN,,0.00,WeatherDisplay:10.37,2013-04-04 14:46:00,
2013-04-04 10:52:00,74.1,67.9,29.99,WSW,241,5.8,5.8,81,0.00,BKN,,0.00,WeatherDisplay:10.37,2013-04-04 14:52:00,
2013-04-04 10:57:00,74.3,68.1,29.99,West,271,4.9,4.9,81,0.00,BKN,,0.00,WeatherDisplay:10.37,2013-04-04 14:57:00,
2013-04-04 11:02:00,74.3,66.2,29.99,SSW,196,8.1,8.1,76,0.00,SCT,,0.00,WeatherDisplay:10.37,2013-04-04 15:02:00,
2013-04-04 11:07:00,74.3,66.2,29.99,WSW,252,8.1,8.1,76,0.00,SCT,,0.00,WeatherDisplay:10.37,2013-04-04 15:07:00,
2013-04-04 11:12:00,74.3,66.2,29.99,SW,233,3.5,3.5,76,0.00,SCT,,0.00,WeatherDisplay:10.37,2013-04-04 15:12:00,
2013-04-04 11:17:00,74.3,66.2,29.99,SSW,204,5.8,5.8,76,0.00,SCT,,0.00,WeatherDisplay:10.37,2013-04-04 15:17:00,
2013-04-04 11:22:00,74.3,66.2,29.99,SSW,194,10.1,10.1,76,0.00,SCT,,0.00,WeatherDisplay:10.37,2013-04-04 15:22:00,
2013-04-04 11:28:00,74.1,66.1,29.99,South,190,5.8,5.8,76,0.00,SCT,,0.00,WeatherDisplay:10.37,2013-04-04 15:28:00,
2013-04-04 11:33:00,74.3,66.2,29.99,West,271,8.1,8.1,76,0.00,SCT,,0.00,WeatherDisplay:10.37,2013-04-04 15:33:00,
2013-04-04 11:38:00,74.3,66.2,29.99,SW,214,8.1,8.1,76,0.00,SCT,,0.00,WeatherDisplay:10.37,2013-04-04 15:38:00,
2013-04-04 11:43:00,74.7,66.6,29.99,SW,236,6.9,6.9,76,0.00,SCT,,0.00,WeatherDisplay:10.37,2013-04-04 15:43:00,
2013-04-04 11:48:00,74.7,66.6,29.99,SW,229,5.8,5.8,76,0.00,SCT,,0.00,WeatherDisplay:10.37,2013-04-04 15:48:00,
2013-04-04 11:53:00,74.5,66.4,29.99,West,267,5.8,5.8,76,0.00,SCT,,0.00,WeatherDisplay:10.37,2013-04-04 15:53:00,
2013-04-04 11:58:00,74.5,66.4,29.99,WSW,250,5.8,5.8,76,0.00,SCT,,0.00,WeatherDisplay:10.37,2013-04-04 15:58:00,
2013-04-04 12:03:00,74.5,66.0,30.00,WNW,282,5.8,5.8,75,0.00,SCT,,0.00,WeatherDisplay:10.37,2013-04-04 16:03:00,
2013-04-04 12:08:00,74.7,66.2,30.00,WSW,256,5.8,5.8,75,0.00,SCT,,0.00,WeatherDisplay:10.37,2013-04-04 16:08:00,
2013-04-04 12:13:00,74.7,66.2,30.00,WSW,239,5.8,5.8,75,0.00,SCT,,0.00,WeatherDisplay:10.37,2013-04-04 16:13:00,
2013-04-04 12:18:00,74.8,66.4,30.00,SW,216,5.8,5.8,75,0.00,SCT,,0.00,WeatherDisplay:10.37,2013-04-04 16:18:00,
2013-04-04 12:23:00,75.0,66.6,30.00,SSW,200,10.4,10.4,75,0.00,SCT,,0.00,WeatherDisplay:10.37,2013-04-04 16:23:00,
2013-04-04 12:28:00,75.0,66.6,30.00,WSW,244,5.8,5.8,75,0.00,SCT,,0.00,WeatherDisplay:10.37,2013-04-04 16:28:00,
2013-04-04 12:33:00,75.0,66.6,30.00,West,260,8.1,8.1,75,0.00,SCT,,0.00,WeatherDisplay:10.37,2013-04-04 16:33:00,
2013-04-04 12:38:00,75.0,66.6,30.00,SW,220,3.5,3.5,75,0.00,SCT,,0.00,WeatherDisplay:10.37,2013-04-04 16:38:00,
2013-04-04 12:43:00,75.0,66.6,30.00,WSW,258,8.1,8.1,75,0.00,SCT,,0.00,WeatherDisplay:10.37,2013-04-04 16:43:00,
2013-04-04 12:48:00,75.0,66.6,30.00,WSW,255,5.8,5.8,75,0.00,SCT,,0.00,WeatherDisplay:10.37,2013-04-04 16:48:00,
2013-04-04 12:53:00,74.8,66.4,30.00,SW,219,9.2,9.2,75,0.00,SCT,,0.00,WeatherDisplay:10.37,2013-04-04 16:53:00,
2013-04-04 12:58:00,74.8,66.4,30.00,West,261,8.1,8.1,75,0.00,SCT,,0.00,WeatherDisplay:10.37,2013-04-04 16:58:00,
2013-04-04 13:03:00,74.7,65.4,30.00,WSW,237,8.1,8.1,73,0.00,FEW,,0.00,WeatherDisplay:10.37,2013-04-04 17:03:00,
2013-04-04 13:08:00,74.7,65.4,30.00,WSW,254,8.1,8.1,73,0.00,FEW,,0.00,WeatherDisplay:10.37,2013-04-04 17:08:00,
2013-04-04 13:13:00,74.7,65.4,30.00,WSW,248,5.8,5.8,73,0.00,FEW,,0.00,WeatherDisplay:10.37,2013-04-04 17:13:00,
2013-04-04 13:18:00,74.7,65.4,30.00,SW,226,5.8,5.8,73,0.00,FEW,,0.00,WeatherDisplay:10.37,2013-04-04 17:18:00,
2013-04-04 13:23:00,74.7,65.4,30.00,WSW,237,5.8,5.8,73,0.00,FEW,,0.00,WeatherDisplay:10.37,2013-04-04 17:23:00,
2013-04-04 13:28:00,74.7,65.4,30.00,WSW,253,3.5,3.5,73,0.00,FEW,,0.00,WeatherDisplay:10.37,2013-04-04 17:28:00,
2013-04-04 13:33:00,74.5,65.3,30.00,West,274,5.4,5.4,73,0.00,FEW,,0.00,WeatherDisplay:10.37,2013-04-04 17:33:00,
2013-04-04 13:38:00,74.5,65.3,30.00,WNW,297,5.8,5.8,73,0.00,FEW,,0.00,WeatherDisplay:10.37,2013-04-04 17:38:00,
2013-04-04 13:43:00,74.5,65.3,30.00,WSW,240,8.1,8.1,73,0.00,FEW,,0.00,WeatherDisplay:10.37,2013-04-04 17:43:00,
2013-04-04 13:49:00,74.3,65.1,30.00,WSW,242,4.0,4.0,73,0.00,FEW,,0.00,WeatherDisplay:10.37,2013-04-04 17:49:00,
2013-04-04 13:54:00,74.3,65.1,30.00,SW,223,8.1,8.1,73,0.00,FEW,,0.00,WeatherDisplay:10.37,2013-04-04 17:54:00,
2013-04-04 13:59:00,74.1,64.9,30.00,SW,230,16.1,16.1,73,0.00,FEW,,0.00,WeatherDisplay:10.37,2013-04-04 17:59:00,
2013-04-04 14:04:00,73.9,64.7,30.00,West,272,8.1,8.1,73,0.00,FEW,,0.00,WeatherDisplay:10.37,2013-04-04 18:04:00,
2013-04-04 14:09:00,73.8,64.6,30.00,West,268,5.8,5.8,73,0.00,FEW,,0.00,WeatherDisplay:10.37,2013-04-04 18:09:00,
2013-04-04 14:15:00,73.6,64.4,30.00,SW,219,5.8,5.8,73,0.00,FEW,,0.00,WeatherDisplay:10.37,2013-04-04 18:15:00,
2013-04-04 14:20:00,73.3,64.1,30.00,WSW,237,7.0,15.0,73,0.00,FEW,,0.00,WeatherDisplay:10.37,2013-04-04 18:20:00,
2013-04-04 14:25:00,73.0,63.9,30.00,SW,222,9.0,15.0,73,0.00,FEW,,0.00,WeatherDisplay:10.37,2013-04-04 18:25:00,
2013-04-04 14:30:00,72.7,63.5,30.00,SW,220,13.8,13.8,73,0.00,FEW,,0.00,WeatherDisplay:10.37,2013-04-04 18:30:00,
2013-04-04 14:35:00,72.3,63.2,30.00,SSW,193,9.0,21.0,73,0.00,FEW,,0.00,WeatherDisplay:10.37,2013-04-04 18:35:00,
2013-04-04 14:40:00,72.1,63.0,30.00,SW,215,8.0,13.0,73,0.00,FEW,,0.00,WeatherDisplay:10.37,2013-04-04 18:40:00,
2013-04-04 14:45:00,72.1,63.0,30.00,SW,235,9.0,17.0,73,0.00,FEW,,0.00,WeatherDisplay:10.37,2013-04-04 18:45:00,
2013-04-04 14:50:00,72.1,63.0,30.00,WSW,249,6.0,11.0,73,0.00,FEW,,0.00,WeatherDisplay:10.37,2013-04-04 18:50:00,
2013-04-04 14:55:00,72.0,62.8,30.00,West,259,6.0,13.0,73,0.00,FEW,,0.00,WeatherDisplay:10.37,2013-04-04 18:55:00,
2013-04-04 15:00:00,72.0,62.8,30.00,SW,220,8.3,8.3,73,0.00,FEW,,0.00,WeatherDisplay:10.37,2013-04-04 19:00:00,
2013-04-04 15:05:00,72.0,69.8,29.92,NNW,330,8.1,8.1,93,0.00,-RA,,0.00,WeatherDisplay:10.37,2013-04-04 19:05:00,
2013-04-04 15:10:00,72.0,69.8,29.92,WNW,294,3.5,4.5,93,0.00,-RA,,0.00,WeatherDisplay:10.37,2013-04-04 19:10:00,
2013-04-04 15:15:00,72.0,69.8,29.92,WSW,248,10.4,10.4,93,0.00,-RA,,0.00,WeatherDisplay:10.37,2013-04-04 19:15:00,
2013-04-04 15:20:00,72.0,69.8,29.92,West,277,10.4,10.4,93,0.00,-RA,,0.00,WeatherDisplay:10.37,2013-04-04 19:20:00,
2013-04-04 15:25:00,71.8,69.6,29.92,WSW,258,8.1,8.1,93,0.00,-RA,,0.00,WeatherDisplay:10.37,2013-04-04 19:25:00,
2013-04-04 15:30:00,71.8,69.6,29.92,SSW,205,10.5,10.5,93,0.00,-RA,,0.00,WeatherDisplay:10.37,2013-04-04 19:30:00,
2013-04-04 15:35:00,71.6,69.5,29.92,WSW,247,12.7,12.7,93,0.00,-RA,,0.00,WeatherDisplay:10.37,2013-04-04 19:35:00,
2013-04-04 15:40:00,71.6,69.5,29.92,South,184,9.2,9.2,93,0.00,-RA,,0.00,WeatherDisplay:10.37,2013-04-04 19:40:00,
2013-04-04 15:45:00,71.6,69.5,29.92,SSW,213,8.1,8.3,93,0.00,-RA,,0.00,WeatherDisplay:10.37,2013-04-04 19:45:00,
2013-04-04 15:50:00,71.8,69.6,29.92,SSW,204,8.1,8.1,93,0.00,-RA,,0.00,WeatherDisplay:10.37,2013-04-04 19:50:00,
2013-04-04 15:55:00,71.8,69.6,29.92,WSW,248,10.4,10.4,93,0.00,-RA,,0.00,WeatherDisplay:10.37,2013-04-04 19:55:00,
2013-04-04 16:00:00,71.8,69.6,29.92,SW,221,8.1,8.1,93,0.00,-RA,,0.00,WeatherDisplay:10.37,2013-04-04 20:00:00,
2013-04-04 16:05:00,71.8,66.7,29.94,SW,224,10.4,10.4,84,0.00,BKN,,0.00,WeatherDisplay:10.37,2013-04-04 20:05:00,
2013-04-04 16:10:00,71.6,66.5,29.94,SW,225,9.2,9.2,84,0.00,BKN,,0.00,WeatherDisplay:10.37,2013-04-04 20:10:00,
2013-04-04 16:15:00,71.6,66.5,29.94,WSW,250,10.4,10.4,84,0.00,BKN,,0.00,WeatherDisplay:10.37,2013-04-04 20:15:00,
2013-04-04 16:20:00,71.4,66.3,29.94,SSW,193,7.6,7.6,84,0.00,BKN,,0.00,WeatherDisplay:10.37,2013-04-04 20:20:00,
2013-04-04 16:25:00,71.2,66.2,29.94,SSE,157,11.5,11.5,84,0.00,BKN,,0.00,WeatherDisplay:10.37,2013-04-04 20:25:00,
2013-04-04 16:30:00,70.9,65.8,29.94,SSW,211,9.2,9.2,84,0.00,BKN,,0.00,WeatherDisplay:10.37,2013-04-04 20:30:00,
2013-04-04 16:36:00,70.9,65.8,29.94,WNW,293,5.8,5.8,84,0.00,BKN,,0.00,WeatherDisplay:10.37,2013-04-04 20:36:00,
2013-04-04 16:41:00,71.1,66.0,29.94,WNW,289,8.7,8.7,84,0.00,BKN,,0.00,WeatherDisplay:10.37,2013-04-04 20:41:00,
2013-04-04 16:46:00,71.1,66.0,29.94,WNW,295,8.1,8.1,84,0.00,BKN,,0.00,WeatherDisplay:10.37,2013-04-04 20:46:00,
2013-04-04 16:51:00,71.2,66.2,29.94,WNW,292,5.8,5.8,84,0.00,BKN,,0.00,WeatherDisplay:10.37,2013-04-04 20:51:00,
2013-04-04 16:56:00,71.2,66.2,29.94,WNW,287,5.8,5.8,84,0.00,BKN,,0.00,WeatherDisplay:10.37,2013-04-04 20:56:00,
2013-04-04 17:01:00,71.2,64.0,29.89,WNW,302,8.1,8.1,78,0.00,FEW,,0.00,WeatherDisplay:10.37,2013-04-04 21:01:00,
2013-04-04 17:07:00,71.2,64.0,29.89,WNW,302,5.8,5.8,78,0.00,FEW,,0.00,WeatherDisplay:10.37,2013-04-04 21:07:00,
2013-04-04 17:12:00,71.2,64.0,29.89,NW,319,5.8,5.8,78,0.00,FEW,,0.00,WeatherDisplay:10.37,2013-04-04 21:12:00,
2013-04-04 17:17:00,71.2,64.0,29.89,WNW,287,5.8,5.8,78,0.00,FEW,,0.00,WeatherDisplay:10.37,2013-04-04 21:17:00,
2013-04-04 17:22:00,71.1,63.9,29.89,NW,307,3.5,0.0,78,0.00,FEW,,0.00,WeatherDisplay:10.37,2013-04-04 21:22:00,
2013-04-04 17:27:00,70.9,63.7,29.89,NW,309,5.8,5.8,78,0.00,FEW,,0.00,WeatherDisplay:10.37,2013-04-04 21:27:00,
2013-04-04 17:32:00,70.9,63.7,29.89,WNW,303,5.8,5.8,78,0.00,FEW,,0.00,WeatherDisplay:10.37,2013-04-04 21:32:00,
2013-04-04 17:37:00,70.9,63.7,29.89,NW,309,3.5,3.5,78,0.00,FEW,,0.00,WeatherDisplay:10.37,2013-04-04 21:37:00,
2013-04-04 17:42:00,71.2,64.0,29.89,NW,308,5.8,5.8,78,0.00,FEW,,0.00,WeatherDisplay:10.37,2013-04-04 21:42:00,
2013-04-04 17:47:00,71.4,64.2,29.89,West,275,4.0,4.0,78,0.00,FEW,,0.00,WeatherDisplay:10.37,2013-04-04 21:47:00,
2013-04-04 17:52:00,72.0,64.7,29.89,WNW,302,5.8,5.8,78,0.00,FEW,,0.00,WeatherDisplay:10.37,2013-04-04 21:52:00,
2013-04-04 17:57:00,72.1,64.9,29.89,NW,325,8.1,8.1,78,0.00,FEW,,0.00,WeatherDisplay:10.37,2013-04-04 21:57:00,
2013-04-04 18:02:00,72.3,63.9,29.89,NW,306,5.8,5.8,75,0.00,FEW,,0.00,WeatherDisplay:10.37,2013-04-04 22:02:00,
2013-04-04 18:07:00,72.5,64.1,29.89,WNW,298,5.8,5.8,75,0.00,FEW,,0.00,WeatherDisplay:10.37,2013-04-04 22:07:00,
2013-04-04 18:12:00,72.5,64.1,29.89,NW,319,8.1,8.1,75,0.00,FEW,,0.00,WeatherDisplay:10.37,2013-04-04 22:12:00,
2013-04-04 18:17:00,72.3,63.9,29.89,WNW,289,5.8,5.8,75,0.00,FEW,,0.00,WeatherDisplay:10.37,2013-04-04 22:17:00,
2013-04-04 18:23:00,72.3,63.9,29.89,WNW,284,5.8,5.8,75,0.00,FEW,,0.00,WeatherDisplay:10.37,2013-04-04 22:23:00,
2013-04-04 18:28:00,72.1,63.8,29.89,NW,312,6.9,6.9,75,0.00,FEW,,0.00,WeatherDisplay:10.37,2013-04-04 22:28:00,
2013-04-04 18:33:00,72.0,63.6,29.89,WNW,282,5.8,5.8,75,0.00,FEW,,0.00,WeatherDisplay:10.37,2013-04-04 22:33:00,
2013-04-04 18:38:00,71.8,63.4,29.89,WNW,289,5.8,5.8,75,0.00,FEW,,0.00,WeatherDisplay:10.37,2013-04-04 22:38:00,
2013-04-04 18:43:00,71.6,63.3,29.89,West,272,5.8,5.8,75,0.00,FEW,,0.00,WeatherDisplay:10.37,2013-04-04 22:43:00,
2013-04-04 18:48:00,71.4,63.1,29.89,NW,322,3.5,3.6,75,0.00,FEW,,0.00,WeatherDisplay:10.37,2013-04-04 22:48:00,
2013-04-04 18:53:00,71.2,62.9,29.89,WNW,302,3.5,3.6,75,0.00,FEW,,0.00,WeatherDisplay:10.37,2013-04-04 22:53:00,
2013-04-04 18:58:00,71.1,62.7,29.89,West,269,4.6,4.6,75,0.00,FEW,,0.00,WeatherDisplay:10.37,2013-04-04 22:58:00,
2013-04-04 19:03:00,70.9,61.8,29.90,WNW,289,3.5,0.0,73,0.00,CLR,,0.00,WeatherDisplay:10.37,2013-04-04 23:03:00,
2013-04-04 19:08:00,70.7,61.6,29.90,West,279,3.5,3.5,73,0.00,CLR,,0.00,WeatherDisplay:10.37,2013-04-04 23:08:00,
2013-04-04 19:13:00,70.5,61.4,29.90,WNW,282,3.1,0.0,73,0.00,CLR,,0.00,WeatherDisplay:10.37,2013-04-04 23:13:00,
2013-04-04 19:18:00,70.5,61.4,29.90,WNW,284,3.5,3.5,73,0.00,CLR,,0.00,WeatherDisplay:10.37,2013-04-04 23:18:00,
2013-04-04 19:23:00,70.2,61.1,29.90,WNW,284,3.5,3.5,73,0.00,CLR,,0.00,WeatherDisplay:10.37,2013-04-04 23:23:00,
2013-04-04 19:28:00,70.0,60.9,29.90,WNW,286,2.3,2.3,73,0.00,CLR,,0.00,WeatherDisplay:10.37,2013-04-04 23:28:00,
2013-04-04 19:33:00,69.8,60.8,29.90,WNW,286,0.0,0.0,73,0.00,CLR,,0.00,WeatherDisplay:10.37,2013-04-04 23:33:00,
2013-04-04 19:38:00,69.4,60.4,29.90,WNW,286,0.0,0.0,73,0.00,CLR,,0.00,WeatherDisplay:10.37,2013-04-04 23:38:00,
2013-04-04 19:43:00,69.1,60.1,29.90,WNW,286,0.0,0.0,73,0.00,CLR,,0.00,WeatherDisplay:10.37,2013-04-04 23:43:00,
2013-04-04 19:48:00,68.9,59.9,29.90,WNW,286,0.0,0.0,73,0.00,CLR,,0.00,WeatherDisplay:10.37,2013-04-04 23:48:00,
2013-04-04 19:53:00,68.5,59.5,29.90,WNW,286,3.5,3.5,73,0.00,CLR,,0.00,WeatherDisplay:10.37,2013-04-04 23:53:00,
2013-04-04 19:58:00,68.2,59.2,29.90,WNW,286,0.0,0.0,73,0.00,CLR,,0.00,WeatherDisplay:10.37,2013-04-04 23:58:00,
2013-04-04 20:03:00,68.0,59.0,29.90,WNW,286,0.0,0.0,73,0.00,CLR,,0.00,WeatherDisplay:10.37,2013-04-05 00:03:00,
2013-04-04 20:08:00,67.6,58.7,29.90,WNW,286,0.0,0.0,73,0.00,CLR,,0.00,WeatherDisplay:10.37,2013-04-05 00:08:00,
2013-04-04 20:13:00,67.3,58.3,29.90,WNW,286,0.0,0.0,73,0.00,CLR,,0.00,WeatherDisplay:10.37,2013-04-05 00:13:00,
2013-04-04 20:19:00,67.1,58.2,29.90,WNW,286,0.0,0.0,73,0.00,CLR,,0.00,WeatherDisplay:10.37,2013-04-05 00:19:00,
2013-04-04 20:24:00,66.7,57.8,29.90,WNW,286,0.0,0.0,73,0.00,CLR,,0.00,WeatherDisplay:10.37,2013-04-05 00:24:00,
2013-04-04 20:29:00,66.6,57.6,29.90,WNW,286,0.0,0.0,73,0.00,CLR,,0.00,WeatherDisplay:10.37,2013-04-05 00:29:00,
2013-04-04 20:34:00,66.4,57.5,29.90,WNW,286,0.0,0.0,73,0.00,CLR,,0.00,WeatherDisplay:10.37,2013-04-05 00:34:00,
2013-04-04 20:39:00,66.2,57.3,29.90,WNW,286,0.0,0.0,73,0.00,CLR,,0.00,WeatherDisplay:10.37,2013-04-05 00:39:00,
2013-04-04 20:45:00,66.2,57.3,29.90,WNW,286,0.0,0.0,73,0.00,CLR,,0.00,WeatherDisplay:10.37,2013-04-05 00:45:00,
2013-04-04 20:50:00,66.2,57.3,29.90,WNW,286,0.0,0.0,73,0.00,CLR,,0.00,WeatherDisplay:10.37,2013-04-05 00:50:00,
2013-04-04 20:55:00,66.0,57.1,29.90,WNW,286,0.0,0.0,73,0.00,CLR,,0.00,WeatherDisplay:10.37,2013-04-05 00:55:00,
2013-04-04 21:00:00,66.0,57.1,29.90,WNW,286,0.0,0.0,73,0.00,CLR,,0.00,WeatherDisplay:10.37,2013-04-05 01:00:00,
2013-04-04 21:05:00,66.0,62.0,29.92,WNW,286,0.0,0.0,87,0.00,CLR,,0.00,WeatherDisplay:10.37,2013-04-05 01:05:00,
2013-04-04 21:10:00,65.8,61.9,29.92,WNW,286,0.0,0.0,87,0.00,CLR,,0.00,WeatherDisplay:10.37,2013-04-05 01:10:00,
2013-04-04 21:15:00,65.8,61.9,29.92,WNW,286,0.0,0.0,87,0.00,CLR,,0.00,WeatherDisplay:10.37,2013-04-05 01:15:00,
2013-04-04 21:20:00,65.8,61.9,29.92,WNW,286,0.0,0.0,87,0.00,CLR,,0.00,WeatherDisplay:10.37,2013-04-05 01:20:00,
2013-04-04 21:25:00,65.7,61.7,29.92,WNW,286,0.0,0.0,87,0.00,CLR,,0.00,WeatherDisplay:10.37,2013-04-05 01:25:00,
2013-04-04 21:30:00,65.7,61.7,29.92,WNW,286,0.0,0.0,87,0.00,CLR,,0.00,WeatherDisplay:10.37,2013-04-05 01:30:00,
2013-04-04 21:35:00,65.7,61.7,29.92,WNW,286,0.0,0.0,87,0.00,CLR,,0.00,WeatherDisplay:10.37,2013-04-05 01:35:00,
2013-04-04 21:40:00,65.7,61.7,29.92,WNW,286,0.0,0.0,87,0.00,CLR,,0.00,WeatherDisplay:10.37,2013-04-05 01:40:00,
2013-04-04 21:45:00,65.7,61.7,29.92,WNW,286,0.0,0.0,87,0.00,CLR,,0.00,WeatherDisplay:10.37,2013-04-05 01:45:00,
2013-04-04 21:50:00,65.7,61.7,29.92,WNW,286,0.0,0.0,87,0.00,CLR,,0.00,WeatherDisplay:10.37,2013-04-05 01:50:00,
2013-04-04 21:55:00,65.7,61.7,29.92,WNW,286,0.0,0.0,87,0.00,CLR,,0.00,WeatherDisplay:10.37,2013-04-05 01:55:00,
2013-04-04 22:00:00,65.8,61.9,29.92,WNW,286,0.0,0.0,87,0.00,CLR,,0.00,WeatherDisplay:10.37,2013-04-05 02:00:00,
2013-04-04 22:05:00,65.8,61.9,29.94,WNW,286,0.0,0.0,87,0.00,SCT,,0.00,WeatherDisplay:10.37,2013-04-05 02:05:00,
2013-04-04 22:10:00,66.0,62.0,29.94,WNW,286,0.0,0.0,87,0.00,SCT,,0.00,WeatherDisplay:10.37,2013-04-05 02:10:00,
2013-04-04 22:15:00,66.0,62.0,29.94,WNW,286,0.0,0.0,87,0.00,SCT,,0.00,WeatherDisplay:10.37,2013-04-05 02:15:00,
2013-04-04 22:20:00,66.0,62.0,29.94,WNW,286,0.0,0.0,87,0.00,SCT,,0.00,WeatherDisplay:10.37,2013-04-05 02:20:00,
2013-04-04 22:25:00,66.0,62.0,29.94,WNW,286,0.0,0.0,87,0.00,SCT,,0.00,WeatherDisplay:10.37,2013-04-05 02:25:00,
2013-04-04 22:30:00,66.0,62.0,29.94,WNW,286,0.0,0.0,87,0.00,SCT,,0.00,WeatherDisplay:10.37,2013-04-05 02:30:00,
2013-04-04 22:35:00,66.2,62.2,29.94,WNW,286,0.0,0.0,87,0.00,SCT,,0.00,WeatherDisplay:10.37,2013-04-05 02:35:00,
2013-04-04 22:40:00,66.2,62.2,29.94,WNW,286,0.0,0.0,87,0.00,SCT,,0.00,WeatherDisplay:10.37,2013-04-05 02:40:00,
2013-04-04 22:45:00,66.2,62.2,29.94,WNW,286,0.0,0.0,87,0.00,SCT,,0.00,WeatherDisplay:10.37,2013-04-05 02:45:00,
2013-04-04 22:50:00,66.2,62.2,29.94,WNW,286,0.0,0.0,87,0.00,SCT,,0.00,WeatherDisplay:10.37,2013-04-05 02:50:00,
2013-04-04 22:55:00,66.2,62.2,29.94,WNW,286,0.0,0.0,87,0.00,SCT,,0.00,WeatherDisplay:10.37,2013-04-05 02:55:00,
2013-04-04 23:00:00,66.2,62.2,29.94,WNW,286,0.0,0.0,87,0.00,SCT,,0.00,WeatherDisplay:10.37,2013-04-05 03:00:00,
2013-04-04 23:05:00,66.2,63.2,29.93,WNW,286,0.0,0.0,90,0.00,SCT,,0.00,WeatherDisplay:10.37,2013-04-05 03:05:00,
2013-04-04 23:10:00,66.2,63.2,29.93,WNW,286,0.0,0.0,90,0.00,SCT,,0.00,WeatherDisplay:10.37,2013-04-05 03:10:00,
2013-04-04 23:15:00,66.0,63.0,29.93,WNW,286,0.0,0.0,90,0.00,SCT,,0.00,WeatherDisplay:10.37,2013-04-05 03:15:00,
2013-04-04 23:20:00,66.0,63.0,29.93,WNW,286,0.0,0.0,90,0.00,SCT,,0.00,WeatherDisplay:10.37,2013-04-05 03:20:00,
2013-04-04 23:25:00,65.8,62.8,29.93,WNW,286,0.0,0.0,90,0.00,SCT,,0.00,WeatherDisplay:10.37,2013-04-05 03:25:00,
2013-04-04 23:30:00,65.7,62.6,29.93,WNW,286,0.0,0.0,90,0.00,SCT,,0.00,WeatherDisplay:10.37,2013-04-05 03:30:00,
2013-04-04 23:36:00,65.7,62.6,29.93,WNW,286,0.0,0.0,90,0.00,SCT,,0.00,WeatherDisplay:10.37,2013-04-05 03:36:00,
2013-04-04 23:41:00,65.7,62.6,29.93,WNW,286,0.0,0.0,90,0.00,SCT,,0.00,WeatherDisplay:10.37,2013-04-05 03:41:00,
2013-04-04 23:46:00,65.7,62.6,29.93,WNW,286,0.0,0.0,90,0.00,SCT,,0.00,WeatherDisplay:10.37,2013-04-05 03:46:00,
2013-04-04 23:51:00,65.8,62.8,29.93,WNW,286,0.0,0.0,90,0.00,SCT,,0.00,WeatherDisplay:10.37,2013-04-05 03:51:00,
2013-04-04 23:56:00,65.8,62.8,29.93,WNW,286,0.0,0.0,90,0.00,SCT,,0.00,WeatherDisplay:10.37,2013-04-05 03:56:00,